Time;durP1;ratioP1;P1;durP2;ratioP2;P2;SDS_P1;SDS_P2;PMS_P1;PMS_P2;Temp;Humidity;BMP_temperature;BMP_pressure;BME280_temperature;BME280_humidity;BME280_pressure;Samples;Min_cycle;Max_cycle;Signal;HPM_P1;HPM_P2
2022/05/18 00:00:27;;;;;;;3.00;2.67;;;22.50;99.90;;;;;;1039141;28;20672;-72
2022/05/18 00:01:00;;;;;;;4.75;2.78;;;22.50;99.90;;;;;;1038951;28;20033;-73
2022/05/18 00:01:30;;;;;;;3.78;2.75;;;22.40;99.90;;;;;;1038878;28;20545;-72
2022/05/18 00:02:01;;;;;;;4.07;3.00;;;22.40;99.90;;;;;;1039122;28;20505;-75
2022/05/18 00:02:31;;;;;;;3.13;2.30;;;22.40;99.90;;;;;;1038727;28;20055;-72
2022/05/18 00:03:07;;;;;;;3.17;2.27;;;22.40;99.90;;;;;;1038961;28;20028;-73
2022/05/18 00:03:41;;;;;;;3.40;2.78;;;22.40;99.90;;;;;;1038871;28;20859;-75
2022/05/18 00:04:12;;;;;;;5.15;3.22;;;22.40;99.90;;;;;;1039236;28;20068;-74
2022/05/18 00:04:42;;;;;;;3.43;2.50;;;22.40;99.90;;;;;;1036033;28;20068;-74
2022/05/18 00:05:13;;;;;;;3.83;2.30;;;22.40;99.90;;;;;;1039305;28;20028;-74
2022/05/18 00:05:46;;;;;;;3.17;2.40;;;22.40;99.90;;;;;;1041862;28;20033;-73
2022/05/18 00:06:16;;;;;;;4.47;2.78;;;22.40;99.90;;;;;;1043203;28;20024;-74
2022/05/18 00:06:47;;;;;;;3.20;2.67;;;22.40;99.90;;;;;;1042934;28;20096;-73
2022/05/18 00:07:18;;;;;;;3.27;2.30;;;22.40;99.90;;;;;;1039149;28;20464;-74
2022/05/18 00:07:49;;;;;;;3.13;2.50;;;22.40;99.90;;;;;;1034721;28;20018;-73
2022/05/18 00:08:21;;;;;;;3.42;2.55;;;22.40;99.90;;;;;;1039420;28;20762;-73
2022/05/18 00:08:51;;;;;;;4.38;2.28;;;22.40;99.90;;;;;;1039202;28;20048;-73
2022/05/18 00:09:22;;;;;;;4.47;2.60;;;22.40;99.90;;;;;;1043156;28;20380;-73
2022/05/18 00:09:53;;;;;;;2.93;2.00;;;22.40;99.90;;;;;;1043033;28;20337;-74
2022/05/18 00:10:24;;;;;;;3.00;2.30;;;22.40;99.90;;;;;;1043405;28;20044;-73
2022/05/18 00:10:55;;;;;;;3.43;1.93;;;22.40;99.90;;;;;;1042865;28;20092;-73
2022/05/18 00:11:26;;;;;;;3.75;2.72;;;22.40;99.90;;;;;;1039227;28;20142;-74
2022/05/18 00:11:58;;;;;;;4.65;3.17;;;22.40;99.90;;;;;;1038875;28;20034;-73
2022/05/18 00:12:30;;;;;;;3.97;3.15;;;22.40;99.90;;;;;;1039242;28;20025;-73
2022/05/18 00:13:00;;;;;;;3.73;2.40;;;22.40;99.90;;;;;;1038994;28;20128;-72
2022/05/18 00:13:32;;;;;;;4.43;2.57;;;22.40;99.90;;;;;;1039482;28;20041;-73
2022/05/18 00:14:02;;;;;;;5.45;2.70;;;22.40;99.90;;;;;;1042747;28;20043;-73
2022/05/18 00:14:34;;;;;;;4.23;2.93;;;22.40;99.90;;;;;;1039244;28;20028;-73
2022/05/18 00:15:05;;;;;;;3.47;2.50;;;22.40;99.90;;;;;;1034490;28;20033;-73
2022/05/18 00:15:37;;;;;;;4.40;2.57;;;22.40;99.90;;;;;;1035290;28;20033;-72
2022/05/18 00:16:08;;;;;;;4.38;2.80;;;22.40;99.90;;;;;;1035231;28;20029;-72
2022/05/18 00:16:38;;;;;;;3.67;2.67;;;22.40;99.90;;;;;;1039358;28;20101;-73
2022/05/18 00:17:09;;;;;;;5.57;3.30;;;22.40;99.90;;;;;;1038832;28;20668;-72
2022/05/18 00:17:41;;;;;;;4.40;2.63;;;22.30;99.90;;;;;;1038978;28;20032;-72
2022/05/18 00:18:12;;;;;;;4.40;2.80;;;22.40;99.90;;;;;;1034700;28;20096;-72
2022/05/18 00:18:42;;;;;;;3.43;2.63;;;22.40;99.90;;;;;;1035013;28;20014;-72
2022/05/18 00:19:13;;;;;;;4.10;2.77;;;22.40;99.90;;;;;;1034895;28;20508;-73
2022/05/18 00:19:43;;;;;;;3.80;2.87;;;22.30;99.90;;;;;;1039003;28;20080;-73
2022/05/18 00:20:14;;;;;;;4.43;3.00;;;22.30;99.90;;;;;;1038717;28;20013;-74
2022/05/18 00:20:45;;;;;;;3.87;2.57;;;22.30;99.90;;;;;;1035166;28;20021;-73
2022/05/18 00:21:15;;;;;;;4.93;2.90;;;22.30;99.90;;;;;;1038991;28;20101;-73
2022/05/18 00:21:46;;;;;;;4.23;2.80;;;22.30;99.90;;;;;;1039119;28;20049;-73
2022/05/18 00:22:16;;;;;;;4.53;2.93;;;22.30;99.90;;;;;;1034721;28;20377;-73
2022/05/18 00:22:51;;;;;;;3.70;2.20;;;22.30;99.90;;;;;;1034912;28;20018;-74
2022/05/18 00:23:21;;;;;;;3.55;2.88;;;22.30;99.90;;;;;;1035406;28;20006;-73
2022/05/18 00:23:52;;;;;;;3.83;2.63;;;22.30;99.90;;;;;;1039226;28;20013;-74
2022/05/18 00:24:24;;;;;;;4.10;2.70;;;22.30;99.90;;;;;;1039280;28;20017;-73
2022/05/18 00:24:55;;;;;;;4.03;2.83;;;22.30;99.90;;;;;;1039437;28;20009;-72
2022/05/18 00:25:29;;;;;;;4.55;2.60;;;22.30;99.90;;;;;;1039318;28;20136;-72
2022/05/18 00:26:00;;;;;;;3.55;2.70;;;22.30;99.90;;;;;;1039394;28;20392;-74
2022/05/18 00:26:30;;;;;;;5.00;3.07;;;22.20;99.90;;;;;;1038897;28;20692;-72
2022/05/18 00:27:03;;;;;;;4.87;3.47;;;22.20;99.90;;;;;;1039049;28;20527;-72
2022/05/18 00:27:34;;;;;;;4.28;2.60;;;22.20;99.90;;;;;;1038723;28;20089;-72
2022/05/18 00:28:05;;;;;;;3.10;2.37;;;22.20;99.90;;;;;;1039458;28;20017;-72
2022/05/18 00:28:35;;;;;;;3.65;2.55;;;22.20;99.90;;;;;;1038794;28;20061;-72
2022/05/18 00:29:06;;;;;;;6.37;3.33;;;22.20;99.90;;;;;;1039150;28;20032;-72
2022/05/18 00:29:37;;;;;;;3.97;2.70;;;22.20;99.90;;;;;;1034866;28;20104;-74
2022/05/18 00:30:10;;;;;;;4.95;3.50;;;22.20;99.90;;;;;;1034864;28;20029;-73
2022/05/18 00:30:41;;;;;;;5.03;3.35;;;22.20;99.90;;;;;;1038659;28;20025;-73
2022/05/18 00:31:14;;;;;;;4.00;2.67;;;22.20;99.90;;;;;;1039758;28;20024;-72
2022/05/18 00:31:46;;;;;;;3.78;2.63;;;22.20;99.90;;;;;;1037851;28;20020;-73
2022/05/18 00:32:17;;;;;;;4.03;3.28;;;22.20;99.90;;;;;;1035668;28;20154;-74
2022/05/18 00:32:48;;;;;;;5.50;3.17;;;22.20;99.90;;;;;;1038814;28;20025;-72
2022/05/18 00:33:19;;;;;;;4.77;3.17;;;22.20;99.90;;;;;;1039120;28;20045;-72
2022/05/18 00:33:50;;;;;;;4.97;2.78;;;22.20;99.90;;;;;;1039083;28;20070;-73
2022/05/18 00:34:20;;;;;;;4.00;2.73;;;22.20;99.90;;;;;;1039336;28;20022;-73
2022/05/18 00:34:51;;;;;;;3.97;3.10;;;22.20;99.90;;;;;;1039220;28;20444;-73
2022/05/18 00:35:22;;;;;;;4.07;2.70;;;22.20;99.90;;;;;;1039193;28;20021;-73
2022/05/18 00:35:54;;;;;;;3.38;2.70;;;22.20;99.90;;;;;;1042300;28;20020;-74
2022/05/18 00:36:25;;;;;;;3.97;2.83;;;22.20;99.90;;;;;;1039108;28;20022;-73
2022/05/18 00:36:55;;;;;;;3.40;2.60;;;22.20;99.90;;;;;;1035028;28;20014;-73
2022/05/18 00:37:26;;;;;;;3.97;3.10;;;22.20;99.90;;;;;;1035072;28;20505;-74
2022/05/18 00:37:57;;;;;;;5.10;3.10;;;22.20;99.90;;;;;;1034616;28;20497;-74
2022/05/18 00:38:28;;;;;;;3.50;2.80;;;22.10;99.90;;;;;;1035048;28;20034;-73
2022/05/18 00:39:00;;;;;;;6.05;3.15;;;22.10;99.90;;;;;;1038750;28;20079;-74
2022/05/18 00:39:31;;;;;;;3.78;2.72;;;22.10;99.90;;;;;;1035120;28;20022;-74
2022/05/18 00:40:02;;;;;;;3.77;2.80;;;22.10;99.90;;;;;;1035182;28;20029;-73
2022/05/18 00:40:34;;;;;;;3.87;2.83;;;22.10;99.90;;;;;;1034829;28;20033;-72
2022/05/18 00:41:05;;;;;;;4.30;3.45;;;22.10;99.90;;;;;;1035055;28;20021;-73
2022/05/18 00:41:35;;;;;;;3.60;3.07;;;22.10;99.90;;;;;;1038983;28;20100;-73
2022/05/18 00:42:16;;;;;;;7.30;3.57;;;22.10;99.90;;;;;;1039030;28;20441;-75
2022/05/18 00:42:47;;;;;;;5.15;3.10;;;22.10;99.90;;;;;;1039154;28;20104;-74
2022/05/18 00:43:29;;;;;;;6.57;3.10;;;22.10;99.90;;;;;;1039172;28;20063;-75
2022/05/18 00:44:00;;;;;;;4.95;3.10;;;22.10;99.90;;;;;;1038782;28;20048;-74
2022/05/18 00:44:31;;;;;;;4.22;3.00;;;22.10;99.90;;;;;;1038071;28;20092;-73
2022/05/18 00:45:02;;;;;;;3.33;2.80;;;22.00;99.90;;;;;;1038848;28;20040;-74
2022/05/18 00:45:33;;;;;;;4.30;3.05;;;22.10;99.90;;;;;;1038911;28;20040;-73
2022/05/18 00:46:07;;;;;;;5.57;3.27;;;22.10;99.90;;;;;;1039047;28;20471;-73
2022/05/18 00:46:38;;;;;;;4.25;3.17;;;22.10;99.90;;;;;;1038176;28;20025;-73
2022/05/18 00:47:08;;;;;;;4.03;2.87;;;22.10;99.90;;;;;;1039082;28;20092;-73
2022/05/18 00:47:39;;;;;;;3.77;2.77;;;22.10;99.90;;;;;;1039407;28;20561;-74
2022/05/18 00:48:09;;;;;;;5.17;3.20;;;22.00;99.90;;;;;;1038928;28;20122;-74
2022/05/18 00:48:41;;;;;;;4.07;2.80;;;22.00;99.90;;;;;;1038776;28;20037;-74
2022/05/18 00:49:12;;;;;;;5.60;3.38;;;22.00;99.90;;;;;;1039122;28;20485;-74
2022/05/18 00:49:46;;;;;;;4.30;3.37;;;22.00;99.90;;;;;;1038547;28;20033;-74
2022/05/18 00:50:22;;;;;;;4.20;3.08;;;22.00;99.90;;;;;;1039859;28;20021;-74
2022/05/18 00:50:55;;;;;;;3.83;2.90;;;22.00;99.90;;;;;;1042922;28;20025;-74
2022/05/18 00:51:42;;;;;;;4.47;3.45;;;22.00;99.90;;;;;;1043243;28;20029;-74
2022/05/18 00:52:14;;;;;;;3.95;3.17;;;22.00;99.90;;;;;;1043042;28;20078;-75
2022/05/18 00:52:58;;;;;;;4.13;3.47;;;22.00;99.90;;;;;;1042806;28;20464;-75
2022/05/18 00:53:40;;;;;;;6.20;3.08;;;22.00;99.90;;;;;;1043611;28;20021;-74
2022/05/18 00:54:31;;;;;;;5.85;3.75;;;22.00;99.90;;;;;;1041609;28;20405;-74
2022/05/18 00:55:03;;;;;;;4.38;3.33;;;22.00;99.90;;;;;;1034326;28;20033;-74
2022/05/18 00:55:39;;;;;;;3.72;3.03;;;22.00;99.90;;;;;;1030937;28;20030;-75
2022/05/18 00:56:14;;;;;;;4.38;3.20;;;22.00;99.90;;;;;;1034403;28;20056;-74
2022/05/18 00:57:14;;;;;;;5.78;3.20;;;22.00;99.90;;;;;;1032420;28;20026;-75
2022/05/18 00:57:50;;;;;;;4.93;3.53;;;22.00;99.90;;;;;;1032403;28;20053;-74
2022/05/18 00:58:32;;;;;;;5.65;3.85;;;22.00;99.90;;;;;;1035490;28;20013;-74
2022/05/18 00:59:09;;;;;;;3.85;3.38;;;22.00;99.90;;;;;;1034488;28;20018;-74
2022/05/18 00:59:47;;;;;;;4.28;2.83;;;22.00;99.90;;;;;;1038072;28;20104;-74
2022/05/18 01:00:20;;;;;;;4.32;3.13;;;22.00;99.90;;;;;;1038718;28;20656;-74
2022/05/18 01:00:51;;;;;;;4.03;3.30;;;22.00;99.90;;;;;;1037077;28;20014;-74
2022/05/18 01:01:23;;;;;;;4.55;3.15;;;21.90;99.90;;;;;;1038851;28;20017;-74
2022/05/18 01:01:55;;;;;;;4.30;3.53;;;22.00;99.90;;;;;;1037036;28;20014;-74
2022/05/18 01:02:30;;;;;;;5.07;2.85;;;22.00;99.90;;;;;;1039462;28;20049;-74
2022/05/18 01:03:09;;;;;;;3.55;3.20;;;22.00;99.90;;;;;;1043215;28;20769;-73
2022/05/18 01:03:43;;;;;;;3.97;3.00;;;22.00;99.90;;;;;;1043178;28;20024;-74
2022/05/18 01:04:15;;;;;;;4.65;3.53;;;21.90;99.90;;;;;;1042976;28;20060;-73
2022/05/18 01:04:49;;;;;;;5.65;3.75;;;21.90;99.90;;;;;;1042730;28;20111;-73
2022/05/18 01:05:24;;;;;;;3.65;3.20;;;21.90;99.90;;;;;;1042704;28;20017;-73
2022/05/18 01:06:09;;;;;;;3.97;3.28;;;21.90;99.90;;;;;;1043024;28;20021;-73
2022/05/18 01:06:51;;;;;;;4.50;2.78;;;21.90;99.90;;;;;;1039519;28;20142;-72
2022/05/18 01:07:29;;;;;;;5.05;3.35;;;21.90;99.90;;;;;;1042973;28;20386;-72
2022/05/18 01:08:00;;;;;;;4.20;3.22;;;21.90;99.90;;;;;;1042971;28;20084;-72
2022/05/18 01:08:45;;;;;;;3.33;2.60;;;21.90;99.90;;;;;;1043219;28;20017;-73
2022/05/18 01:09:24;;;;;;;4.88;3.20;;;21.90;99.90;;;;;;1043427;28;20021;-74
2022/05/18 01:09:54;;;;;;;;;;;21.90;99.90;;;;;;1043627;28;20104;-73
2022/05/18 01:10:29;;;;;;;4.40;3.07;;;21.90;99.90;;;;;;1043059;28;19909;-72
2022/05/18 01:11:00;;;;;;;4.43;2.97;;;21.90;99.90;;;;;;1038585;28;20034;-73
2022/05/18 01:11:34;;;;;;;3.53;2.90;;;21.90;99.90;;;;;;1039059;28;20070;-72
2022/05/18 01:12:07;;;;;;;5.20;3.42;;;21.90;99.90;;;;;;1039891;28;20413;-72
2022/05/18 01:12:37;;;;;;;4.25;3.35;;;21.90;99.90;;;;;;1039566;28;20033;-73
2022/05/18 01:13:09;;;;;;;3.93;3.00;;;21.90;99.90;;;;;;1042866;28;20021;-71
2022/05/18 01:13:39;;;;;;;4.20;3.08;;;21.90;99.90;;;;;;1038770;28;20445;-75
2022/05/18 01:14:51;;;;;;;4.07;3.37;;;21.90;99.90;;;;;;1038950;28;20028;-73
2022/05/18 01:15:23;;;;;;;4.35;2.95;;;21.90;99.90;;;;;;1042848;28;20029;-73
2022/05/18 01:15:55;;;;;;;4.88;3.80;;;21.90;99.90;;;;;;1038016;28;20184;-73
2022/05/18 01:16:28;;;;;;;4.55;3.15;;;21.90;99.90;;;;;;1036677;28;20018;-72
2022/05/18 01:16:58;;;;;;;3.38;3.08;;;21.90;99.90;;;;;;1038506;28;20036;-73
2022/05/18 01:17:34;;;;;;;3.83;3.10;;;21.90;99.90;;;;;;1039716;28;20445;-73
2022/05/18 01:18:04;;;;;;;3.70;2.72;;;21.90;99.90;;;;;;1042566;28;20136;-71
2022/05/18 01:18:36;;;;;;;4.73;3.37;;;21.80;99.90;;;;;;1043080;28;20052;-73
2022/05/18 01:19:16;;;;;;;4.00;2.97;;;21.80;99.90;;;;;;1042858;28;20455;-74
2022/05/18 01:19:51;;;;;;;4.20;3.25;;;21.90;99.90;;;;;;1042976;28;20009;-75
2022/05/18 01:20:25;;;;;;;4.35;2.42;;;21.80;99.90;;;;;;1042698;28;20137;-71
2022/05/18 01:20:55;;;;;;;5.18;3.00;;;21.80;99.90;;;;;;1042912;28;20452;-72
2022/05/18 01:21:34;;;;;;;6.43;3.47;;;21.80;99.90;;;;;;1041615;28;20558;-74
2022/05/18 01:22:33;;;;;;;2.38;1.90;;;21.80;99.90;;;;;;1038809;28;20029;-73
2022/05/18 01:23:19;;;;;;;3.75;2.80;;;21.80;99.90;;;;;;1043178;28;20013;-73
2022/05/18 01:24:08;;;;;;;3.38;2.58;;;21.80;99.90;;;;;;1042964;28;20036;-73
2022/05/18 01:25:29;;;;;;;5.15;3.13;;;21.80;99.90;;;;;;1042885;28;20033;-72
2022/05/18 01:26:13;;;;;;;5.78;3.40;;;21.80;99.90;;;;;;1042584;28;20543;-72
2022/05/18 01:26:47;;;;;;;3.78;3.13;;;21.80;99.90;;;;;;1038348;28;20018;-72
2022/05/18 01:27:18;;;;;;;4.20;3.45;;;21.80;99.90;;;;;;1039020;28;20051;-72
2022/05/18 01:27:49;;;;;;;4.37;3.03;;;21.80;99.90;;;;;;1041041;28;20025;-73
2022/05/18 01:28:23;;;;;;;4.15;3.08;;;21.80;99.90;;;;;;1043058;28;20021;-74
2022/05/18 01:28:58;;;;;;;4.57;2.78;;;21.80;99.90;;;;;;1043211;28;20029;-73
2022/05/18 01:29:30;;;;;;;4.63;3.28;;;21.80;99.90;;;;;;1043326;28;20025;-72
2022/05/18 01:30:01;;;;;;;4.03;3.35;;;21.80;99.90;;;;;;1043131;28;20060;-72
2022/05/18 01:30:34;;;;;;;4.23;3.37;;;21.80;99.90;;;;;;1039578;28;20031;-73
2022/05/18 01:31:04;;;;;;;6.30;4.57;;;21.80;99.90;;;;;;1039115;28;20170;-73
2022/05/18 01:31:41;;;;;;;5.17;3.17;;;21.80;99.90;;;;;;1039126;28;20085;-76
2022/05/18 01:32:15;;;;;;;4.97;3.53;;;21.80;99.90;;;;;;1041801;28;20439;-73
2022/05/18 01:32:48;;;;;;;4.10;3.33;;;21.80;99.90;;;;;;1034370;28;20199;-73
2022/05/18 01:33:19;;;;;;;4.30;2.95;;;21.80;99.90;;;;;;1034943;28;20662;-73
2022/05/18 01:33:50;;;;;;;5.33;3.77;;;21.80;99.90;;;;;;1035301;28;20464;-74
2022/05/18 01:34:23;;;;;;;4.03;3.23;;;21.80;99.90;;;;;;1039108;28;20512;-71
2022/05/18 01:34:54;;;;;;;4.65;3.53;;;21.80;99.90;;;;;;1038571;28;20561;-73
2022/05/18 01:35:31;;;;;;;4.80;3.60;;;21.80;99.90;;;;;;1035267;28;20438;-72
2022/05/18 01:36:03;;;;;;;3.65;3.10;;;21.70;99.90;;;;;;1038563;28;20527;-73
2022/05/18 01:36:34;;;;;;;5.20;3.95;;;21.70;99.90;;;;;;1034805;28;20489;-73
2022/05/18 01:37:06;;;;;;;3.38;2.55;;;21.70;99.90;;;;;;1035740;28;20160;-72
2022/05/18 01:37:37;;;;;;;4.85;3.53;;;21.70;99.90;;;;;;1038839;28;20022;-72
2022/05/18 01:38:12;;;;;;;4.60;2.90;;;21.70;99.90;;;;;;1038515;28;20040;-72
2022/05/18 01:38:42;;;;;;;3.67;2.78;;;21.70;99.90;;;;;;1039667;28;20036;-73
2022/05/18 01:39:51;;;;;;;3.73;2.40;;;21.70;99.90;;;;;;1041968;28;20024;-74
2022/05/18 01:40:41;;;;;;;6.85;3.63;;;21.70;99.90;;;;;;1039011;28;20097;-73
2022/05/18 01:41:17;;;;;;;5.38;3.55;;;21.70;99.90;;;;;;1038513;28;20492;-73
2022/05/18 01:42:15;;;;;;;4.50;3.33;;;21.70;99.90;;;;;;1038956;28;20032;-73
2022/05/18 01:42:52;;;;;;;3.65;3.03;;;21.70;99.90;;;;;;1031599;28;20074;-74
2022/05/18 01:43:47;;;;;;;5.43;3.50;;;21.70;99.90;;;;;;1038910;28;20100;-72
2022/05/18 01:44:18;;;;;;;5.82;3.58;;;21.70;99.90;;;;;;1042305;28;20027;-72
2022/05/18 01:44:49;;;;;;;5.10;3.63;;;21.70;99.90;;;;;;1042931;28;20507;-72
2022/05/18 01:45:19;;;;;;;4.50;3.80;;;21.70;99.90;;;;;;1038553;28;20021;-72
2022/05/18 01:45:51;;;;;;;5.00;2.80;;;21.60;99.90;;;;;;1038914;28;20558;-73
2022/05/18 01:46:23;;;;;;;5.38;3.00;;;21.70;99.90;;;;;;1042299;28;20730;-72
2022/05/18 01:46:53;;;;;;;3.50;2.97;;;21.70;99.90;;;;;;1042839;28;20104;-73
2022/05/18 01:47:24;;;;;;;3.27;2.83;;;21.60;99.90;;;;;;1042848;28;20028;-73
2022/05/18 01:48:05;;;;;;;3.50;3.20;;;21.70;99.90;;;;;;1042869;28;20032;-72
2022/05/18 01:48:42;;;;;;;3.47;2.97;;;21.60;99.90;;;;;;1042710;28;20071;-72
2022/05/18 01:49:13;;;;;;;3.45;3.15;;;21.60;99.90;;;;;;1042912;28;20064;-72
2022/05/18 01:49:45;;;;;;;3.77;3.20;;;21.60;99.90;;;;;;1040924;28;20041;-72
2022/05/18 01:50:25;;;;;;;4.05;3.45;;;21.60;99.90;;;;;;1038568;28;20349;-73
2022/05/18 01:50:58;;;;;;;5.35;3.85;;;21.60;99.90;;;;;;1038538;28;20228;-72
2022/05/18 01:51:37;;;;;;;4.35;3.55;;;21.60;99.90;;;;;;1036654;28;20116;-72
2022/05/18 01:52:10;;;;;;;3.33;2.90;;;21.60;99.90;;;;;;1041698;28;20029;-73
2022/05/18 01:52:41;;;;;;;6.00;3.55;;;21.60;99.90;;;;;;1042560;28;20440;-72
2022/05/18 01:53:11;;;;;;;3.33;2.73;;;21.60;99.90;;;;;;1040397;28;20694;-74
2022/05/18 01:53:42;;;;;;;4.27;3.20;;;21.60;99.90;;;;;;1042723;28;20028;-74
2022/05/18 01:54:13;;;;;;;5.40;3.67;;;21.60;99.90;;;;;;1037193;28;20461;-74
2022/05/18 01:54:46;;;;;;;3.80;2.78;;;21.60;99.90;;;;;;1034644;28;20018;-73
2022/05/18 01:55:17;;;;;;;5.07;3.60;;;21.60;99.90;;;;;;1038660;28;20429;-75
2022/05/18 01:55:48;;;;;;;4.65;2.95;;;21.60;99.90;;;;;;1038443;28;20029;-74
2022/05/18 01:56:18;;;;;;;3.10;2.70;;;21.60;99.90;;;;;;1038785;28;20104;-72
2022/05/18 01:56:49;;;;;;;6.57;3.60;;;21.60;99.90;;;;;;1038589;28;20057;-73
2022/05/18 01:57:20;;;;;;;3.83;2.77;;;21.60;99.90;;;;;;1038661;28;20021;-73
2022/05/18 01:57:50;;;;;;;3.90;3.13;;;21.60;99.90;;;;;;1038603;28;20481;-74
2022/05/18 01:58:22;;;;;;;3.50;2.57;;;21.60;99.90;;;;;;1041260;28;20017;-72
2022/05/18 01:58:53;;;;;;;4.95;3.47;;;21.60;99.90;;;;;;1042726;28;20017;-74
2022/05/18 01:59:26;;;;;;;4.47;3.50;;;21.60;99.90;;;;;;1042856;28;20365;-73
2022/05/18 01:59:56;;;;;;;4.47;3.13;;;21.60;99.90;;;;;;1038375;28;20073;-73
2022/05/18 02:00:27;;;;;;;5.30;3.50;;;21.50;99.90;;;;;;1034584;28;20018;-74
2022/05/18 02:01:01;;;;;;;3.42;2.72;;;21.60;99.90;;;;;;1034696;28;20022;-73
2022/05/18 02:01:31;;;;;;;7.40;3.90;;;21.60;99.90;;;;;;1034881;28;20026;-73
2022/05/18 02:02:03;;;;;;;3.53;2.83;;;21.60;99.90;;;;;;1039127;28;20045;-71
2022/05/18 02:02:38;;;;;;;5.15;3.45;;;21.60;99.90;;;;;;1038716;28;20104;-72
2022/05/18 02:03:08;;;;;;;3.83;3.42;;;21.60;99.90;;;;;;1037662;28;20132;-73
2022/05/18 02:03:39;;;;;;;3.80;2.97;;;21.60;99.90;;;;;;1034733;28;20029;-73
2022/05/18 02:04:12;;;;;;;4.95;3.55;;;21.60;99.90;;;;;;1034268;28;20145;-73
2022/05/18 02:04:43;;;;;;;5.80;3.30;;;21.60;99.90;;;;;;1038287;28;20033;-72
2022/05/18 02:05:14;;;;;;;5.05;3.42;;;21.50;99.90;;;;;;1039080;28;20421;-73
2022/05/18 02:05:45;;;;;;;5.57;3.63;;;21.60;99.90;;;;;;1042758;28;20503;-73
2022/05/18 02:06:15;;;;;;;5.43;2.80;;;21.60;99.90;;;;;;1037974;28;20586;-73
2022/05/18 02:06:46;;;;;;;4.23;2.67;;;21.60;99.90;;;;;;1034625;28;20022;-73
2022/05/18 02:07:17;;;;;;;4.30;3.03;;;21.60;99.90;;;;;;1034417;28;20044;-73
2022/05/18 02:07:47;;;;;;;4.97;3.40;;;21.50;99.90;;;;;;1030571;28;20026;-73
2022/05/18 02:08:19;;;;;;;5.03;3.77;;;21.60;99.90;;;;;;1034410;28;20425;-73
2022/05/18 02:08:50;;;;;;;4.57;3.30;;;21.60;99.90;;;;;;1034890;28;20026;-73
2022/05/18 02:09:20;;;;;;;6.53;3.93;;;21.50;99.90;;;;;;1038685;28;20033;-73
2022/05/18 02:09:51;;;;;;;6.67;3.67;;;21.50;99.90;;;;;;1038357;28;20424;-73
2022/05/18 02:10:22;;;;;;;4.00;3.07;;;21.50;99.90;;;;;;1038618;28;20587;-72
2022/05/18 02:10:52;;;;;;;5.03;3.90;;;21.50;99.90;;;;;;1038259;28;20021;-72
2022/05/18 02:11:23;;;;;;;3.73;3.27;;;21.50;99.90;;;;;;1038859;28;20014;-72
2022/05/18 02:11:54;;;;;;;4.47;3.63;;;21.50;99.90;;;;;;1038252;28;20072;-73
2022/05/18 02:12:24;;;;;;;4.75;3.13;;;21.50;99.90;;;;;;1036054;28;20119;-73
2022/05/18 02:12:55;;;;;;;4.03;3.43;;;21.50;99.90;;;;;;1042633;28;20130;-73
2022/05/18 02:13:26;;;;;;;3.67;2.83;;;21.50;99.90;;;;;;1040848;28;20399;-73
2022/05/18 02:13:57;;;;;;;5.15;3.63;;;21.50;99.90;;;;;;1038131;28;20060;-72
2022/05/18 02:14:27;;;;;;;4.13;3.57;;;21.50;99.90;;;;;;1038893;28;20021;-72
2022/05/18 02:14:58;;;;;;;4.07;3.30;;;21.50;99.90;;;;;;1034219;28;20513;-73
2022/05/18 02:15:29;;;;;;;3.43;2.80;;;21.50;99.90;;;;;;1034731;28;20064;-71
2022/05/18 02:16:03;;;;;;;5.17;3.53;;;21.40;99.90;;;;;;1038384;28;20034;-70
2022/05/18 02:16:33;;;;;;;3.13;2.78;;;21.40;99.90;;;;;;1038879;28;20673;-73
2022/05/18 02:17:04;;;;;;;4.10;3.43;;;21.50;99.90;;;;;;1038789;28;20420;-74
2022/05/18 02:17:36;;;;;;;4.23;3.40;;;21.50;99.90;;;;;;1039205;28;20053;-74
2022/05/18 02:18:07;;;;;;;4.25;3.15;;;21.50;99.90;;;;;;1038752;28;20069;-72
2022/05/18 02:18:38;;;;;;;4.07;3.10;;;21.50;99.90;;;;;;1042765;28;20029;-72
2022/05/18 02:19:10;;;;;;;4.05;3.60;;;21.50;99.90;;;;;;1042665;28;20021;-71
2022/05/18 02:19:40;;;;;;;4.32;3.50;;;21.50;99.90;;;;;;1038471;28;20400;-72
2022/05/18 02:20:12;;;;;;;3.90;2.87;;;21.50;99.90;;;;;;1038474;28;20477;-72
2022/05/18 02:20:43;;;;;;;5.10;4.03;;;21.50;99.90;;;;;;1038648;28;20448;-72
2022/05/18 02:21:15;;;;;;;4.25;3.60;;;21.50;99.90;;;;;;1038795;28;20053;-72
2022/05/18 02:21:46;;;;;;;3.90;3.15;;;21.40;99.90;;;;;;1038741;28;20123;-72
2022/05/18 02:22:17;;;;;;;3.97;3.10;;;21.40;99.90;;;;;;1037793;28;20029;-72
2022/05/18 02:22:48;;;;;;;4.33;3.50;;;21.40;99.90;;;;;;1034690;28;20812;-73
2022/05/18 02:23:19;;;;;;;3.63;3.08;;;21.40;99.90;;;;;;1034588;28;20018;-73
2022/05/18 02:23:49;;;;;;;4.03;3.40;;;21.40;99.90;;;;;;1034868;28;20164;-73
2022/05/18 02:24:20;;;;;;;4.33;3.70;;;21.40;99.90;;;;;;1034336;28;20177;-72
2022/05/18 02:24:50;;;;;;;4.87;3.57;;;21.40;99.90;;;;;;1030487;28;20018;-73
2022/05/18 02:25:21;;;;;;;5.17;3.00;;;21.40;99.90;;;;;;1030327;28;20516;-73
2022/05/18 02:25:52;;;;;;;4.47;3.23;;;21.40;99.90;;;;;;1030546;28;20026;-72
2022/05/18 02:26:22;;;;;;;6.30;4.13;;;21.40;99.90;;;;;;1030846;28;20018;-72
2022/05/18 02:26:53;;;;;;;4.10;3.37;;;21.40;99.90;;;;;;1034719;28;20029;-72
2022/05/18 02:27:23;;;;;;;3.83;3.43;;;21.40;99.90;;;;;;1034245;28;20295;-73
2022/05/18 02:27:55;;;;;;;3.87;3.23;;;21.40;99.90;;;;;;1039070;28;20572;-73
2022/05/18 02:28:25;;;;;;;5.35;3.60;;;21.40;99.90;;;;;;1041705;28;20087;-74
2022/05/18 02:28:57;;;;;;;4.63;3.43;;;21.40;99.90;;;;;;1038652;28;20112;-73
2022/05/18 02:29:27;;;;;;;4.25;2.97;;;21.40;99.90;;;;;;1038518;28;20025;-73
2022/05/18 02:29:59;;;;;;;3.27;2.93;;;21.40;99.90;;;;;;1038589;28;20396;-74
2022/05/18 02:30:29;;;;;;;4.82;3.70;;;21.40;99.90;;;;;;1038398;28;20028;-73
2022/05/18 02:31:00;;;;;;;3.93;3.37;;;21.40;99.90;;;;;;1038902;28;20052;-72
2022/05/18 02:31:31;;;;;;;5.60;3.60;;;21.40;99.90;;;;;;1038996;28;20045;-74
2022/05/18 02:32:02;;;;;;;3.27;2.73;;;21.40;99.90;;;;;;1038401;28;20091;-73
2022/05/18 02:32:33;;;;;;;4.82;3.28;;;21.30;99.90;;;;;;1034571;28;20113;-73
2022/05/18 02:33:04;;;;;;;3.13;2.83;;;21.40;99.90;;;;;;1034255;28;20606;-72
2022/05/18 02:33:35;;;;;;;4.03;3.13;;;21.40;99.90;;;;;;1034494;28;20614;-73
2022/05/18 02:34:05;;;;;;;2.73;2.30;;;21.40;99.90;;;;;;1034552;28;20071;-73
2022/05/18 02:34:36;;;;;;;3.83;2.90;;;21.40;99.90;;;;;;1038611;28;20142;-75
2022/05/18 02:35:08;;;;;;;3.72;2.40;;;21.30;99.90;;;;;;1038773;28;20017;-73
2022/05/18 02:35:40;;;;;;;4.07;2.88;;;21.30;99.90;;;;;;1042721;28;20021;-74
2022/05/18 02:36:12;;;;;;;5.05;3.05;;;21.40;99.90;;;;;;1042476;28;20324;-73
2022/05/18 02:36:44;;;;;;;5.03;3.40;;;21.40;99.90;;;;;;1042611;28;20078;-73
2022/05/18 02:37:14;;;;;;;4.53;3.30;;;21.40;99.90;;;;;;1042147;28;20024;-74
2022/05/18 02:37:45;;;;;;;4.67;3.03;;;21.40;99.90;;;;;;1038237;28;20025;-74
2022/05/18 02:38:15;;;;;;;4.67;2.90;;;21.40;99.90;;;;;;1038573;28;20068;-73
2022/05/18 02:38:47;;;;;;;5.50;3.50;;;21.40;99.90;;;;;;1038668;28;20017;-73
2022/05/18 02:39:20;;;;;;;3.75;2.85;;;21.40;99.90;;;;;;1038244;28;20018;-72
2022/05/18 02:39:51;;;;;;;3.80;2.72;;;21.30;99.90;;;;;;1038813;28;20673;-74
2022/05/18 02:40:22;;;;;;;3.67;2.37;;;21.40;99.90;;;;;;1034250;28;20817;-73
2022/05/18 02:40:56;;;;;;;4.75;2.78;;;21.40;99.90;;;;;;1030963;28;20011;-73
2022/05/18 02:41:27;;;;;;;3.47;2.40;;;21.40;99.90;;;;;;1030333;28;20038;-74
2022/05/18 02:41:58;;;;;;;4.93;3.30;;;21.40;99.90;;;;;;1031029;28;20450;-74
2022/05/18 02:42:28;;;;;;;5.97;3.93;;;21.40;99.90;;;;;;1035177;28;20455;-73
2022/05/18 02:42:59;;;;;;;3.20;2.53;;;21.40;99.90;;;;;;1034421;28;20042;-73
2022/05/18 02:43:30;;;;;;;2.73;2.20;;;21.40;99.90;;;;;;1038389;28;20017;-73
2022/05/18 02:44:01;;;;;;;5.00;3.45;;;21.40;99.90;;;;;;1038653;28;20065;-74
2022/05/18 02:44:31;;;;;;;4.73;3.00;;;21.40;99.90;;;;;;1034517;28;20010;-74
2022/05/18 02:45:03;;;;;;;3.70;2.37;;;21.40;99.90;;;;;;1034467;28;20116;-74
2022/05/18 02:45:33;;;;;;;5.13;3.78;;;21.40;99.90;;;;;;1034378;28;20033;-73
2022/05/18 02:46:14;;;;;;;5.27;3.00;;;21.30;99.90;;;;;;1034634;28;20159;-73
2022/05/18 02:46:44;;;;;;;4.03;2.90;;;21.30;99.90;;;;;;1034034;28;20056;-73
2022/05/18 02:47:17;;;;;;;4.13;2.80;;;21.30;99.90;;;;;;1034328;28;20040;-74
2022/05/18 02:47:47;;;;;;;3.90;3.22;;;21.30;99.90;;;;;;1036171;28;20355;-73
2022/05/18 02:48:18;;;;;;;3.83;3.20;;;21.30;99.90;;;;;;1038461;28;20445;-73
2022/05/18 02:48:51;;;;;;;4.97;3.47;;;21.30;99.90;;;;;;1038431;28;20018;-73
2022/05/18 02:49:23;;;;;;;2.95;2.42;;;21.30;99.90;;;;;;1034476;28;20025;-73
2022/05/18 02:49:54;;;;;;;4.93;3.38;;;21.30;99.90;;;;;;1034285;28;20030;-73
2022/05/18 02:50:26;;;;;;;4.67;3.50;;;21.30;99.90;;;;;;1030313;28;20111;-73
2022/05/18 02:50:56;;;;;;;4.38;3.60;;;21.30;99.90;;;;;;1030826;28;20064;-73
2022/05/18 02:51:27;;;;;;;4.03;3.63;;;21.30;99.90;;;;;;1034715;28;20183;-73
2022/05/18 02:51:58;;;;;;;3.60;3.27;;;21.30;99.90;;;;;;1038465;28;20059;-73
2022/05/18 02:52:28;;;;;;;3.63;2.80;;;21.20;99.90;;;;;;1038649;28;20028;-74
2022/05/18 02:53:00;;;;;;;3.20;2.77;;;21.30;99.90;;;;;;1034334;28;20026;-73